Time;durP1;ratioP1;P1;durP2;ratioP2;P2;SDS_P1;SDS_P2;PMS_P1;PMS_P2;Temp;Humidity;BMP_temperature;BMP_pressure;BME280_temperature;BME280_humidity;BME280_pressure;Samples;Min_cycle;Max_cycle;Signal;HPM_P1;HPM_P2
2023/02/15 00:01:19;;;;;;;9.13;5.15;;;;;;;;;;4916115;29;20143;-50
2023/02/15 00:03:44;;;;;;;9.73;5.22;;;;;;;;;;4916168;29;20075;-50
2023/02/15 00:06:10;;;;;;;9.38;4.47;;;;;;;;;;4916199;29;20036;-50
2023/02/15 00:08:35;;;;;;;12.90;5.00;;;;;;;;;;4916229;29;20479;-52
2023/02/15 00:11:05;;;;;;;4.97;3.80;;;;;;;;;;4916090;29;20028;-49
2023/02/15 00:13:30;;;;;;;8.60;5.30;;;;;;;;;;4916221;29;20404;-49
2023/02/15 00:16:00;;;;;;;10.63;5.22;;;;;;;;;;4915905;29;20043;-49
2023/02/15 00:18:25;;;;;;;6.93;3.90;;;;;;;;;;4915876;29;20090;-49
2023/02/15 00:20:51;;;;;;;12.80;4.85;;;;;;;;;;4915887;29;20036;-49
2023/02/15 00:23:16;;;;;;;7.57;4.18;;;;;;;;;;4915507;29;20060;-49
2023/02/15 00:25:41;;;;;;;9.35;4.25;;;;;;;;;;4915766;29;20137;-49
2023/02/15 00:28:06;;;;;;;9.73;5.45;;;;;;;;;;4915709;29;20640;-50
2023/02/15 00:30:33;;;;;;;13.27;5.88;;;;;;;;;;4930191;29;20065;-49
2023/02/15 00:32:59;;;;;;;14.85;5.80;;;;;;;;;;4930268;29;20036;-50
2023/02/15 00:35:25;;;;;;;12.57;4.95;;;;;;;;;;4915665;29;20036;-49
2023/02/15 00:37:52;;;;;;;9.15;5.53;;;;;;;;;;4915624;29;20036;-50
2023/02/15 00:40:17;;;;;;;10.43;5.28;;;;;;;;;;4914375;29;20032;-50
2023/02/15 00:42:43;;;;;;;12.55;6.95;;;;;;;;;;4915458;29;20371;-50
2023/02/15 00:45:09;;;;;;;8.40;3.83;;;;;;;;;;4915316;29;20058;-50
2023/02/15 00:47:34;;;;;;;9.75;5.60;;;;;;;;;;4915401;29;20032;-50
2023/02/15 00:49:59;;;;;;;12.95;6.13;;;;;;;;;;4930039;29;20028;-49
2023/02/15 00:52:25;;;;;;;8.48;5.53;;;;;;;;;;4915206;29;20413;-50
2023/02/15 00:54:50;;;;;;;10.90;5.55;;;;;;;;;;4915449;29;20052;-50
2023/02/15 00:57:16;;;;;;;13.95;5.45;;;;;;;;;;4930012;29;20024;-50
2023/02/15 00:59:41;;;;;;;7.65;4.63;;;;;;;;;;4915224;29;20036;-49
2023/02/15 01:02:06;;;;;;;9.18;4.72;;;;;;;;;;4915300;29;20031;-50
2023/02/15 01:04:32;;;;;;;7.75;4.60;;;;;;;;;;4915205;29;20046;-49
2023/02/15 01:06:57;;;;;;;8.82;4.97;;;;;;;;;;4914042;29;20176;-49
2023/02/15 01:09:23;;;;;;;10.18;5.38;;;;;;;;;;4929885;29;20052;-49
2023/02/15 01:11:48;;;;;;;6.25;4.15;;;;;;;;;;4915152;29;20030;-51
2023/02/15 01:14:14;;;;;;;9.75;5.63;;;;;;;;;;4929716;29;20035;-50
2023/02/15 01:16:40;;;;;;;8.27;5.57;;;;;;;;;;4915122;29;20023;-49
2023/02/15 01:19:06;;;;;;;10.98;5.45;;;;;;;;;;4915195;29;20028;-50
2023/02/15 01:21:34;;;;;;;10.82;5.35;;;;;;;;;;4915015;29;20486;-50
2023/02/15 01:23:59;;;;;;;7.35;4.63;;;;;;;;;;4913881;29;20048;-50
2023/02/15 01:26:26;;;;;;;8.40;4.85;;;;;;;;;;4929832;29;20052;-50
2023/02/15 01:28:51;;;;;;;12.20;5.35;;;;;;;;;;4915108;29;20048;-50
2023/02/15 01:31:18;;;;;;;10.10;5.57;;;;;;;;;;4915078;29;20042;-50
2023/02/15 01:33:46;;;;;;;10.85;5.30;;;;;;;;;;4917006;29;20040;-50
2023/02/15 01:36:11;;;;;;;6.20;3.85;;;;;;;;;;4919112;29;20047;-50
2023/02/15 01:38:39;;;;;;;11.00;5.47;;;;;;;;;;4918874;29;20115;-50
2023/02/15 01:41:20;;;;;;;12.75;5.72;;;;;;;;;;4918680;29;20032;-49
2023/02/15 01:43:47;;;;;;;11.00;5.72;;;;;;;;;;4933364;29;20040;-50
2023/02/15 01:46:13;;;;;;;3.85;3.05;;;;;;;;;;4917437;29;20100;-50
2023/02/15 01:48:52;;;;;;;9.77;4.38;;;;;;;;;;4917215;29;20135;-49
2023/02/15 01:51:20;;;;;;;10.65;5.03;;;;;;;;;;4918637;29;20359;-50
2023/02/15 01:53:59;;;;;;;9.05;5.22;;;;;;;;;;4918622;29;20501;-49
2023/02/15 01:56:27;;;;;;;11.18;4.82;;;;;;;;;;4918630;29;20547;-49
2023/02/15 01:58:53;;;;;;;10.63;4.78;;;;;;;;;;4933183;29;20107;-49
2023/02/15 02:01:19;;;;;;;7.78;5.07;;;;;;;;;;4918389;29;20036;-49
2023/02/15 02:04:03;;;;;;;11.15;4.68;;;;;;;;;;4932903;29;20031;-50
2023/02/15 02:06:29;;;;;;;5.20;3.53;;;;;;;;;;4932801;29;20122;-49
2023/02/15 02:08:56;;;;;;;9.32;4.68;;;;;;;;;;4932860;29;20112;-50
2023/02/15 02:11:21;;;;;;;12.02;4.80;;;;;;;;;;4932804;29;20040;-50
2023/02/15 02:13:47;;;;;;;7.93;4.30;;;;;;;;;;4932707;29;20035;-50
2023/02/15 02:16:12;;;;;;;8.30;4.80;;;;;;;;;;4918182;29;20028;-50
2023/02/15 02:18:50;;;;;;;9.13;5.05;;;;;;;;;;4918124;29;20116;-49
2023/02/15 02:21:24;;;;;;;11.52;5.50;;;;;;;;;;4918079;29;20044;-50
2023/02/15 02:23:50;;;;;;;10.35;4.82;;;;;;;;;;4917934;29;20107;-49
2023/02/15 02:26:15;;;;;;;8.90;4.93;;;;;;;;;;4932857;29;20122;-50
2023/02/15 02:28:53;;;;;;;11.27;4.15;;;;;;;;;;4932406;29;20044;-49
2023/02/15 02:31:30;;;;;;;7.75;3.97;;;;;;;;;;4917836;29;20047;-50
2023/02/15 02:34:22;;;;;;;9.13;4.60;;;;;;;;;;4917953;29;20058;-49
2023/02/15 02:36:47;;;;;;;10.02;4.85;;;;;;;;;;4914547;29;20388;-49
2023/02/15 02:39:19;;;;;;;10.57;4.80;;;;;;;;;;4932290;29;20024;-49
2023/02/15 02:41:55;;;;;;;5.53;4.05;;;;;;;;;;4917639;29;20496;-49
2023/02/15 02:44:39;;;;;;;9.30;4.90;;;;;;;;;;4917133;29;20028;-49
2023/02/15 02:47:17;;;;;;;4.07;3.65;;;;;;;;;;4917535;29;20044;-49
2023/02/15 02:49:43;;;;;;;7.88;4.15;;;;;;;;;;4931952;29;20435;-50
2023/02/15 02:52:27;;;;;;;10.55;4.90;;;;;;;;;;4916181;29;20031;-50
2023/02/15 02:54:55;;;;;;;12.32;5.60;;;;;;;;;;4932136;29;20471;-50
2023/02/15 02:57:22;;;;;;;8.48;4.45;;;;;;;;;;4917430;29;20502;-50
2023/02/15 02:59:50;;;;;;;9.13;4.05;;;;;;;;;;4931870;29;20044;-49
2023/02/15 03:02:28;;;;;;;8.93;4.70;;;;;;;;;;4915968;29;20036;-50
2023/02/15 03:05:03;;;;;;;9.32;5.38;;;;;;;;;;4931907;29;20125;-50
2023/02/15 03:07:30;;;;;;;6.13;3.85;;;;;;;;;;4931640;29;20032;-50
2023/02/15 03:09:57;;;;;;;9.20;3.92;;;;;;;;;;4931812;29;20039;-50
2023/02/15 03:12:24;;;;;;;9.55;5.05;;;;;;;;;;4917167;29;20040;-50
2023/02/15 03:14:53;;;;;;;6.47;3.42;;;;;;;;;;4931914;29;20035;-49
2023/02/15 03:17:23;;;;;;;8.88;4.82;;;;;;;;;;4931686;29;20032;-49
2023/02/15 03:19:51;;;;;;;12.90;4.47;;;;;;;;;;4915713;29;20403;-49
2023/02/15 03:22:19;;;;;;;10.35;4.20;;;;;;;;;;4931523;29;20070;-49
2023/02/15 03:24:54;;;;;;;10.85;4.63;;;;;;;;;;4915651;29;20551;-49
2023/02/15 03:27:22;;;;;;;7.43;3.92;;;;;;;;;;4931481;29;20028;-49
2023/02/15 03:29:49;;;;;;;9.20;4.82;;;;;;;;;;4916665;29;20062;-49
2023/02/15 03:32:15;;;;;;;8.23;4.15;;;;;;;;;;4915520;29;20039;-50
2023/02/15 03:34:41;;;;;;;12.90;6.00;;;;;;;;;;4916875;29;20024;-50
2023/02/15 03:37:15;;;;;;;8.45;5.50;;;;;;;;;;4916827;29;20399;-49
2023/02/15 03:39:51;;;;;;;13.18;5.57;;;;;;;;;;4916885;29;20028;-50
2023/02/15 03:42:19;;;;;;;11.30;4.68;;;;;;;;;;4916580;29;20044;-49
2023/02/15 03:45:05;;;;;;;9.43;4.32;;;;;;;;;;4916397;29;20060;-50
2023/02/15 03:47:42;;;;;;;13.93;6.18;;;;;;;;;;4916725;29;20056;-50
2023/02/15 03:51:33;;;;;;;7.47;3.83;;;;;;;;;;4916756;29;20439;-50
2023/02/15 03:52:57;;;;;;;10.18;4.85;;;;;;;;;;4916833;29;20036;-49
2023/02/15 03:55:22;;;;;;;10.15;5.13;;;;;;;;;;4930974;29;20574;-50
2023/02/15 04:03:38;;;;;;;16.15;6.50;;;;;;;;;;4916280;29;20031;-50
2023/02/15 04:06:03;;;;;;;8.15;4.70;;;;;;;;;;4916276;29;20521;-49
2023/02/15 04:11:13;;;;;;;10.50;5.38;;;;;;;;;;4916301;29;20028;-49
2023/02/15 04:13:38;;;;;;;8.82;4.85;;;;;;;;;;4916114;29;20480;-50
2023/02/15 04:16:04;;;;;;;9.10;5.00;;;;;;;;;;4915975;29;20044;-50
2023/02/15 04:26:41;;;;;;;9.40;3.63;;;;;;;;;;4915808;29;20032;-50
2023/02/15 04:29:06;;;;;;;7.38;3.40;;;;;;;;;;4915810;29;20518;-49
2023/02/15 04:31:32;;;;;;;17.48;5.68;;;;;;;;;;4915604;29;20455;-49
2023/02/15 04:33:57;;;;;;;10.82;5.05;;;;;;;;;;4930385;29;20083;-49
2023/02/15 04:36:22;;;;;;;11.68;6.07;;;;;;;;;;4915680;29;20107;-49
2023/02/15 04:38:48;;;;;;;6.97;4.53;;;;;;;;;;4915603;29;20087;-49
2023/02/15 04:41:13;;;;;;;7.97;4.53;;;;;;;;;;4915642;29;20044;-49
2023/02/15 04:43:38;;;;;;;10.68;6.13;;;;;;;;;;4915541;29;20032;-49
2023/02/15 04:46:04;;;;;;;13.95;5.97;;;;;;;;;;4929978;29;20098;-49
2023/02/15 04:48:29;;;;;;;9.85;5.28;;;;;;;;;;4915395;29;20040;-50
2023/02/15 04:50:55;;;;;;;13.80;6.47;;;;;;;;;;4915726;29;20036;-50
2023/02/15 04:53:20;;;;;;;10.02;4.95;;;;;;;;;;4915379;29;20035;-50
2023/02/15 04:55:46;;;;;;;13.13;4.40;;;;;;;;;;4915335;29;20036;-50
2023/02/15 04:58:11;;;;;;;4.68;3.28;;;;;;;;;;4915625;29;20031;-49
2023/02/15 05:00:36;;;;;;;11.13;5.65;;;;;;;;;;4915169;29;20036;-50
2023/02/15 05:03:02;;;;;;;12.85;5.50;;;;;;;;;;4915710;29;20028;-49
2023/02/15 05:05:27;;;;;;;9.90;3.70;;;;;;;;;;4915678;29;20040;-50
2023/02/15 05:07:53;;;;;;;9.95;5.97;;;;;;;;;;4914736;29;20043;-49
2023/02/15 05:10:19;;;;;;;13.65;5.47;;;;;;;;;;4915309;29;20562;-49
2023/02/15 05:12:44;;;;;;;10.02;5.20;;;;;;;;;;4915434;29;20060;-49
2023/02/15 05:15:10;;;;;;;12.93;6.28;;;;;;;;;;4915436;29;20036;-49
2023/02/15 05:17:35;;;;;;;6.88;4.63;;;;;;;;;;4915118;29;20372;-49
2023/02/15 05:20:01;;;;;;;7.50;3.80;;;;;;;;;;4915238;29;20081;-50
2023/02/15 05:22:26;;;;;;;11.80;5.10;;;;;;;;;;4915084;29;20075;-50
2023/02/15 05:30:19;;;;;;;20.75;6.10;;;;;;;;;;4915098;29;20068;-49
2023/02/15 05:32:45;;;;;;;12.10;6.18;;;;;;;;;;4915292;29;20111;-49
2023/02/15 05:35:15;;;;;;;11.23;5.22;;;;;;;;;;4915096;29;20036;-49
2023/02/15 05:37:40;;;;;;;9.88;5.25;;;;;;;;;;4915324;29;20107;-50
2023/02/15 05:40:07;;;;;;;14.00;5.95;;;;;;;;;;4915015;29;20863;-50
2023/02/15 05:42:32;;;;;;;16.17;6.63;;;;;;;;;;4914933;29;20629;-49
2023/02/15 05:44:58;;;;;;;6.03;3.80;;;;;;;;;;4914845;29;20062;-50
2023/02/15 05:47:24;;;;;;;18.08;7.32;;;;;;;;;;4915083;29;20024;-49
2023/02/15 05:49:49;;;;;;;4.72;2.92;;;;;;;;;;4914790;29;20045;-50
2023/02/15 05:52:15;;;;;;;7.32;3.50;;;;;;;;;;4914960;29;20024;-49
2023/02/15 05:54:40;;;;;;;12.95;4.88;;;;;;;;;;4929400;29;20044;-50
2023/02/15 05:57:05;;;;;;;11.10;5.47;;;;;;;;;;4915141;29;20107;-49
2023/02/15 05:59:31;;;;;;;13.35;6.68;;;;;;;;;;4915059;29;20507;-50
2023/02/15 06:01:56;;;;;;;12.20;5.75;;;;;;;;;;4914887;29;20020;-50
2023/02/15 06:04:22;;;;;;;13.32;5.55;;;;;;;;;;4914709;29;20032;-50
2023/02/15 06:06:47;;;;;;;15.57;6.60;;;;;;;;;;4915006;29;20028;-50
2023/02/15 06:09:13;;;;;;;12.82;6.20;;;;;;;;;;4914768;29;20036;-49
2023/02/15 06:11:38;;;;;;;8.13;5.05;;;;;;;;;;4913354;29;20047;-49
2023/02/15 06:14:03;;;;;;;11.52;5.75;;;;;;;;;;4914763;29;20513;-49
2023/02/15 06:16:29;;;;;;;12.90;6.13;;;;;;;;;;4914995;29;20033;-49
2023/02/15 06:18:54;;;;;;;8.30;4.85;;;;;;;;;;4914648;29;20051;-50
2023/02/15 06:21:20;;;;;;;9.38;5.10;;;;;;;;;;4917284;29;20012;-49
2023/02/15 06:23:45;;;;;;;8.48;5.15;;;;;;;;;;4918043;29;20036;-49
2023/02/15 06:26:11;;;;;;;7.15;4.20;;;;;;;;;;4918225;29;20067;-50
2023/02/15 06:28:37;;;;;;;10.98;5.07;;;;;;;;;;4917862;29;20167;-50
2023/02/15 06:31:03;;;;;;;11.55;6.72;;;;;;;;;;4918177;29;20047;-50
2023/02/15 06:33:30;;;;;;;13.68;6.13;;;;;;;;;;4932481;29;20028;-49
2023/02/15 06:35:56;;;;;;;14.13;7.03;;;;;;;;;;4917890;29;20016;-50
2023/02/15 06:38:21;;;;;;;12.45;6.30;;;;;;;;;;4932368;29;20032;-49
2023/02/15 06:40:47;;;;;;;12.45;6.50;;;;;;;;;;4932271;29;20035;-50
2023/02/15 06:43:12;;;;;;;12.63;6.07;;;;;;;;;;4917679;29;20480;-49
2023/02/15 06:45:37;;;;;;;17.00;7.38;;;;;;;;;;4917476;29;20052;-49
2023/02/15 06:48:03;;;;;;;11.95;6.03;;;;;;;;;;4917785;29;20036;-50
2023/02/15 06:50:28;;;;;;;11.18;5.28;;;;;;;;;;4917611;29;20040;-49
2023/02/15 06:52:57;;;;;;;11.20;5.20;;;;;;;;;;4917512;29;20413;-49
2023/02/15 06:55:23;;;;;;;7.35;4.65;;;;;;;;;;4932075;29;20502;-49
2023/02/15 06:57:48;;;;;;;11.05;4.65;;;;;;;;;;4917700;29;20040;-49
2023/02/15 07:00:14;;;;;;;12.27;5.78;;;;;;;;;;4917481;29;20028;-51
2023/02/15 07:02:39;;;;;;;10.77;5.20;;;;;;;;;;4917182;29;20075;-49
2023/02/15 07:05:05;;;;;;;9.57;4.78;;;;;;;;;;4917668;29;20028;-49
2023/02/15 07:07:30;;;;;;;18.63;6.18;;;;;;;;;;4917577;29;20024;-50
2023/02/15 07:09:56;;;;;;;12.23;5.47;;;;;;;;;;4917253;29;20376;-49
2023/02/15 07:13:04;;;;;;;12.68;5.15;;;;;;;;;;4917178;29;20379;-50
2023/02/15 07:15:11;;;;;;;13.98;5.40;;;;;;;;;;4911874;29;20046;-49
2023/02/15 07:17:37;;;;;;;17.85;7.75;;;;;;;;;;4917063;29;20020;-49
2023/02/15 07:20:04;;;;;;;13.43;6.65;;;;;;;;;;4917408;29;20111;-49
2023/02/15 07:22:29;;;;;;;12.52;7.22;;;;;;;;;;4916946;29;20060;-49
2023/02/15 07:24:55;;;;;;;15.43;7.20;;;;;;;;;;4917275;29;20442;-49
2023/02/15 07:27:20;;;;;;;8.85;5.38;;;;;;;;;;4917006;29;20111;-49
2023/02/15 07:29:46;;;;;;;8.18;4.93;;;;;;;;;;4931537;29;20074;-49
2023/02/15 07:32:11;;;;;;;8.15;4.78;;;;;;;;;;4931206;29;20028;-49
2023/02/15 07:34:37;;;;;;;8.82;4.85;;;;;;;;;;4916748;29;20119;-49
2023/02/15 07:37:03;;;;;;;10.73;6.00;;;;;;;;;;4917002;29;20028;-50
2023/02/15 07:39:28;;;;;;;9.80;5.70;;;;;;;;;;4916821;29;20096;-51
2023/02/15 07:41:53;;;;;;;12.55;5.70;;;;;;;;;;4916799;29;20028;-50
2023/02/15 07:44:19;;;;;;;12.90;6.07;;;;;;;;;;4916634;29;20075;-49
2023/02/15 07:46:44;;;;;;;12.88;6.28;;;;;;;;;;4931005;29;20044;-49
2023/02/15 07:49:10;;;;;;;9.38;4.88;;;;;;;;;;4931115;29;20065;-49
2023/02/15 07:51:35;;;;;;;11.00;5.68;;;;;;;;;;4916393;29;20475;-49
2023/02/15 07:54:00;;;;;;;16.08;5.05;;;;;;;;;;4916742;29;20032;-49
2023/02/15 07:56:26;;;;;;;11.23;5.50;;;;;;;;;;4916501;29;20493;-49
2023/02/15 07:58:52;;;;;;;12.77;7.45;;;;;;;;;;4916276;29;20032;-49
2023/02/15 08:01:18;;;;;;;10.82;6.53;;;;;;;;;;4916304;29;20284;-49
2023/02/15 08:03:44;;;;;;;10.27;6.55;;;;;;;;;;4916307;29;20116;-49
2023/02/15 08:06:11;;;;;;;13.32;5.43;;;;;;;;;;4916172;29;20115;-49
2023/02/15 08:08:37;;;;;;;13.38;6.15;;;;;;;;;;4916151;29;20054;-49
2023/02/15 08:13:56;;;;;;;10.07;5.72;;;;;;;;;;4916029;29;20042;-49
2023/02/15 08:16:23;;;;;;;11.27;5.20;;;;;;;;;;4916076;29;20035;-49
2023/02/15 08:18:48;;;;;;;12.05;5.63;;;;;;;;;;4915932;29;20028;-49
2023/02/15 08:21:14;;;;;;;11.77;5.45;;;;;;;;;;4930833;29;20035;-49
2023/02/15 08:23:39;;;;;;;8.43;4.82;;;;;;;;;;4930405;29;20110;-49
2023/02/15 08:26:05;;;;;;;7.97;4.35;;;;;;;;;;4915837;29;20036;-50
2023/02/15 08:28:31;;;;;;;12.40;6.18;;;;;;;;;;4915811;29;20039;-49
2023/02/15 08:31:10;;;;;;;7.72;5.50;;;;;;;;;;4915739;29;20094;-49
2023/02/15 08:33:37;;;;;;;11.32;5.93;;;;;;;;;;4915710;29;20040;-49
2023/02/15 08:36:05;;;;;;;8.05;4.85;;;;;;;;;;4915742;29;20028;-49
2023/02/15 08:38:32;;;;;;;11.77;5.95;;;;;;;;;;4930194;29;20463;-49
2023/02/15 08:40:57;;;;;;;10.02;5.93;;;;;;;;;;4915837;29;20112;-49
2023/02/15 08:43:23;;;;;;;12.82;5.85;;;;;;;;;;4915095;29;20060;-49
2023/02/15 08:45:48;;;;;;;4.97;3.80;;;;;;;;;;4915399;29;20597;-49
2023/02/15 08:48:14;;;;;;;9.15;5.75;;;;;;;;;;4915449;29;20444;-49
2023/02/15 08:50:40;;;;;;;11.27;5.07;;;;;;;;;;4915408;29;20080;-49
2023/02/15 08:53:05;;;;;;;10.52;5.65;;;;;;;;;;4915603;29;20036;-49
2023/02/15 08:55:31;;;;;;;13.20;5.70;;;;;;;;;;4929798;29;20024;-49
2023/02/15 11:34:11;;;;;;;6.90;3.42;;;;;;;;;;5088855;27;20467;-50
2023/02/15 11:36:38;;;;;;;6.28;4.00;;;;;;;;;;5070701;28;20067;-50
2023/02/15 11:39:13;;;;;;;9.10;4.28;;;;;;;;;;5088827;28;20358;-50
2023/02/15 11:41:46;;;;;;;4.32;2.50;;;;;;;;;;5088619;28;20058;-50
2023/02/15 11:44:16;;;;;;;7.00;2.70;;;;;;;;;;5088741;28;20474;-51
2023/02/15 11:46:42;;;;;;;6.00;2.92;;;;;;;;;;5088725;28;20032;-50
2023/02/15 11:49:20;;;;;;;12.30;3.65;;;;;;;;;;5088659;28;20028;-50
2023/02/15 11:51:45;;;;;;;5.18;3.30;;;;;;;;;;5088646;28;20024;-50
2023/02/15 11:54:11;;;;;;;3.75;2.63;;;;;;;;;;5088423;28;20431;-50
2023/02/15 11:56:36;;;;;;;5.15;3.05;;;;;;;;;;5088461;28;20063;-50
2023/02/15 11:59:07;;;;;;;6.22;2.80;;;;;;;;;;5070326;28;20020;-50
2023/02/15 12:01:34;;;;;;;7.32;2.58;;;;;;;;;;5088267;28;20501;-50
2023/02/15 12:04:18;;;;;;;4.88;3.17;;;;;;;;;;5088260;28;20027;-50
2023/02/15 12:06:45;;;;;;;5.57;3.45;;;;;;;;;;5087067;28;20044;-50
2023/02/15 12:09:29;;;;;;;9.60;3.67;;;;;;;;;;5069965;28;20073;-50
2023/02/15 12:12:15;;;;;;;5.30;2.67;;;;;;;;;;5088205;28;20103;-50
2023/02/15 12:14:48;;;;;;;4.50;2.60;;;;;;;;;;5069915;28;20032;-50
2023/02/15 12:17:15;;;;;;;4.25;2.95;;;;;;;;;;5088047;28;20511;-50
2023/02/15 12:19:41;;;;;;;6.85;3.60;;;;;;;;;;5069972;28;20046;-50
2023/02/15 12:22:20;;;;;;;9.82;3.95;;;;;;;;;;5087876;28;20085;-50
2023/02/15 12:24:47;;;;;;;9.38;4.10;;;;;;;;;;5087869;28;20025;-50
2023/02/15 12:27:42;;;;;;;4.32;2.55;;;;;;;;;;5087943;28;20097;-50
2023/02/15 12:30:21;;;;;;;6.15;3.17;;;;;;;;;;5065476;28;20032;-50
2023/02/15 12:32:49;;;;;;;5.55;3.08;;;;;;;;;;5085901;28;20763;-50
2023/02/15 12:35:22;;;;;;;11.38;2.42;;;;;;;;;;5072569;28;20024;-50
2023/02/15 12:37:53;;;;;;;3.78;2.15;;;;;;;;;;5056311;28;20063;-50
2023/02/15 12:40:33;;;;;;;3.00;2.47;;;;;;;;;;5056188;28;20035;-50
2023/02/15 12:42:59;;;;;;;4.28;2.78;;;;;;;;;;5072869;28;20394;-50
2023/02/15 12:45:24;;;;;;;2.97;2.50;;;;;;;;;;5074036;28;20493;-50
2023/02/15 12:48:10;;;;;;;9.15;3.72;;;;;;;;;;5074045;28;20036;-50
2023/02/15 12:50:36;;;;;;;2.80;1.95;;;;;;;;;;5058397;28;20789;-50
2023/02/15 12:53:14;;;;;;;3.33;2.00;;;;;;;;;;5072622;28;20032;-50
2023/02/15 12:55:48;;;;;;;4.63;2.38;;;;;;;;;;5073953;28;20070;-50
2023/02/15 12:58:19;;;;;;;5.03;2.40;;;;;;;;;;5072540;28;20035;-50
2023/02/15 13:00:45;;;;;;;7.32;2.42;;;;;;;;;;5073871;28;20115;-51
2023/02/15 13:03:19;;;;;;;3.42;2.20;;;;;;;;;;5072244;28;20401;-50
2023/02/15 13:05:46;;;;;;;3.30;2.35;;;;;;;;;;5073735;28;20029;-50
2023/02/15 13:08:14;;;;;;;4.63;2.95;;;;;;;;;;5073612;28;20016;-50
2023/02/15 13:10:58;;;;;;;4.82;2.35;;;;;;;;;;5073644;28;20021;-51
2023/02/15 13:13:26;;;;;;;5.07;3.10;;;;;;;;;;5073444;28;20016;-50
2023/02/15 13:15:52;;;;;;;4.68;2.58;;;;;;;;;;5073516;28;20024;-50
2023/02/15 13:18:31;;;;;;;3.88;2.15;;;;;;;;;;5073621;28;20020;-50
2023/02/15 13:20:56;;;;;;;3.47;1.92;;;;;;;;;;5072234;28;20032;-50
2023/02/15 13:23:29;;;;;;;2.95;2.22;;;;;;;;;;5073211;28;20496;-50
2023/02/15 13:25:56;;;;;;;5.93;2.10;;;;;;;;;;5072127;28;20032;-50
2023/02/15 13:28:24;;;;;;;4.25;2.10;;;;;;;;;;5073297;28;20024;-50
2023/02/15 13:30:50;;;;;;;3.17;2.30;;;;;;;;;;5071856;28;20040;-50
2023/02/15 13:33:27;;;;;;;4.10;2.15;;;;;;;;;;5071609;28;20056;-51
2023/02/15 13:36:07;;;;;;;3.35;2.08;;;;;;;;;;5071898;28;20032;-51
2023/02/15 13:38:32;;;;;;;2.17;1.80;;;;;;;;;;5071726;28;20032;-51
2023/02/15 13:41:08;;;;;;;3.70;1.90;;;;;;;;;;5072942;28;20520;-50
2023/02/15 13:43:38;;;;;;;2.70;1.40;;;;;;;;;;5071606;28;20032;-51
2023/02/15 13:46:04;;;;;;;3.45;2.17;;;;;;;;;;5071879;28;20040;-50
2023/02/15 13:48:38;;;;;;;4.72;2.08;;;;;;;;;;5071456;28;20032;-50
2023/02/15 13:51:04;;;;;;;2.03;1.58;;;;;;;;;;5072839;28;20039;-50
2023/02/15 13:53:41;;;;;;;3.22;1.60;;;;;;;;;;5072720;28;20021;-50
2023/02/15 13:56:25;;;;;;;1.88;1.52;;;;;;;;;;5072990;28;20352;-51
2023/02/15 13:59:00;;;;;;;4.65;1.98;;;;;;;;;;5072670;28;20078;-50
2023/02/15 14:01:32;;;;;;;2.58;1.63;;;;;;;;;;5072669;28;20036;-50
2023/02/15 14:04:03;;;;;;;3.58;1.80;;;;;;;;;;5072698;28;20040;-51
2023/02/15 14:06:29;;;;;;;2.10;1.33;;;;;;;;;;5072366;28;20074;-51
2023/02/15 14:08:57;;;;;;;3.00;1.33;;;;;;;;;;5072393;28;20056;-50
2023/02/15 14:11:26;;;;;;;2.58;1.60;;;;;;;;;;5072286;28;20024;-50
2023/02/15 14:13:58;;;;;;;2.70;1.52;;;;;;;;;;5072384;28;20108;-50
2023/02/15 14:16:33;;;;;;;2.22;1.15;;;;;;;;;;5070975;28;20032;-51
2023/02/15 14:19:04;;;;;;;2.75;1.95;;;;;;;;;;5072237;28;20032;-51
2023/02/15 14:21:44;;;;;;;2.40;1.95;;;;;;;;;;5071986;28;20058;-50
2023/02/15 14:24:17;;;;;;;3.08;1.67;;;;;;;;;;5072417;28;20056;-50
2023/02/15 14:26:42;;;;;;;;;;;;;;;;;;5072777;28;20052;-50
2023/02/15 14:29:16;;;;;;;3.72;1.73;;;;;;;;;;5072128;28;20356;-50
2023/02/15 14:31:43;;;;;;;1.35;1.13;;;;;;;;;;5072074;28;20032;-50
2023/02/15 14:34:29;;;;;;;4.40;2.15;;;;;;;;;;5071934;28;20044;-50
2023/02/15 14:36:55;;;;;;;2.33;1.70;;;;;;;;;;5053725;28;20130;-51
2023/02/15 14:42:52;;;;;;;2.38;1.73;;;;;;;;;;5071735;28;20036;-51
2023/02/15 14:45:42;;;;;;;2.40;2.10;;;;;;;;;;5058183;28;20127;-51
2023/02/15 14:48:08;;;;;;;1.55;1.45;;;;;;;;;;5070392;28;20078;-50
2023/02/15 14:50:44;;;;;;;1.48;1.25;;;;;;;;;;5071695;28;20020;-50
2023/02/15 14:53:17;;;;;;;2.67;1.58;;;;;;;;;;5071677;28;20033;-50
2023/02/15 14:55:42;;;;;;;2.38;1.25;;;;;;;;;;5071868;28;20029;-50
2023/02/15 14:58:12;;;;;;;3.58;1.77;;;;;;;;;;5071440;28;20062;-50
2023/02/15 15:00:39;;;;;;;3.58;1.60;;;;;;;;;;5071533;28;20028;-50
2023/02/15 15:03:22;;;;;;;2.42;1.90;;;;;;;;;;5071505;28;20037;-50
2023/02/15 15:05:47;;;;;;;;;;;;;;;;;;5072089;28;20115;-52
2023/02/15 15:08:28;;;;;;;3.55;1.83;;;;;;;;;;5071505;28;19998;-51
2023/02/15 15:10:55;;;;;;;2.60;2.30;;;;;;;;;;5071511;28;20028;-50
2023/02/15 15:13:29;;;;;;;3.85;2.25;;;;;;;;;;5071357;28;20051;-50
2023/02/15 15:15:55;;;;;;;4.80;2.42;;;;;;;;;;5071428;28;20478;-50
2023/02/15 15:18:39;;;;;;;11.13;2.13;;;;;;;;;;5071604;28;20024;-50
2023/02/15 15:21:06;;;;;;;5.63;2.55;;;;;;;;;;5071473;28;20032;-50
2023/02/15 15:23:38;;;;;;;2.85;1.80;;;;;;;;;;5069911;28;20032;-50
2023/02/15 15:26:28;;;;;;;3.38;2.03;;;;;;;;;;5071721;28;20029;-51
2023/02/15 15:28:55;;;;;;;4.50;2.33;;;;;;;;;;5057191;28;20575;-50
2023/02/15 15:31:33;;;;;;;2.10;1.92;;;;;;;;;;5070232;28;20016;-51
2023/02/15 15:33:59;;;;;;;2.42;2.00;;;;;;;;;;5071022;28;20049;-50
2023/02/15 15:36:24;;;;;;;4.03;2.38;;;;;;;;;;5069901;28;20031;-50
2023/02/15 15:39:06;;;;;;;8.15;2.55;;;;;;;;;;5069939;28;20047;-50
2023/02/15 15:41:42;;;;;;;4.28;2.67;;;;;;;;;;5071121;28;20025;-50
2023/02/15 15:44:31;;;;;;;10.60;2.83;;;;;;;;;;5071133;28;20037;-50
2023/02/15 15:47:04;;;;;;;3.75;2.75;;;;;;;;;;5071196;28;20040;-51
2023/02/15 15:49:32;;;;;;;6.72;3.58;;;;;;;;;;5071068;28;20111;-50
2023/02/15 15:52:17;;;;;;;6.88;3.00;;;;;;;;;;5071153;28;20028;-50
2023/02/15 15:54:44;;;;;;;5.10;3.15;;;;;;;;;;5071063;28;20036;-50
2023/02/15 15:57:16;;;;;;;10.65;4.13;;;;;;;;;;5071375;28;20042;-50
2023/02/15 15:59:44;;;;;;;12.82;4.05;;;;;;;;;;5071106;28;20493;-50
2023/02/15 16:02:12;;;;;;;9.68;4.25;;;;;;;;;;5071180;28;20029;-50
2023/02/15 16:04:38;;;;;;;9.43;4.97;;;;;;;;;;5071128;28;20051;-50
2023/02/15 16:07:14;;;;;;;11.38;4.53;;;;;;;;;;5071313;28;20540;-50
2023/02/15 16:09:39;;;;;;;9.10;3.85;;;;;;;;;;5073435;28;20024;-50
2023/02/15 16:12:13;;;;;;;9.18;4.53;;;;;;;;;;5074663;28;20489;-50
2023/02/15 16:14:40;;;;;;;9.40;4.57;;;;;;;;;;5074817;28;20024;-50
2023/02/15 16:17:06;;;;;;;15.38;5.63;;;;;;;;;;5074578;28;20034;-51
2023/02/15 16:19:33;;;;;;;7.78;4.70;;;;;;;;;;5074457;28;20082;-51
2023/02/15 16:22:00;;;;;;;11.25;5.68;;;;;;;;;;5073197;28;20039;-50
2023/02/15 16:24:34;;;;;;;7.20;4.47;;;;;;;;;;5074527;28;20042;-50
2023/02/15 16:27:19;;;;;;;6.68;4.47;;;;;;;;;;5074343;28;20485;-50
2023/02/15 16:29:44;;;;;;;9.68;6.50;;;;;;;;;;5074273;28;20028;-50
2023/02/15 16:32:20;;;;;;;7.55;4.65;;;;;;;;;;5074111;28;20127;-50
2023/02/15 16:34:52;;;;;;;11.98;7.50;;;;;;;;;;5074182;28;20036;-50
2023/02/15 16:37:21;;;;;;;11.98;7.43;;;;;;;;;;5072886;28;20062;-50
2023/02/15 16:39:47;;;;;;;13.70;7.95;;;;;;;;;;5072867;28;20039;-50
2023/02/15 16:42:14;;;;;;;15.95;6.50;;;;;;;;;;5072918;28;20041;-51
2023/02/15 16:44:40;;;;;;;13.90;6.35;;;;;;;;;;5074015;28;20126;-50
2023/02/15 16:47:13;;;;;;;8.93;6.43;;;;;;;;;;5074250;28;20103;-51
2023/02/15 16:49:42;;;;;;;8.18;5.88;;;;;;;;;;5073879;28;20025;-50
2023/02/15 16:52:15;;;;;;;11.25;5.82;;;;;;;;;;5073897;28;20115;-51
2023/02/15 16:54:42;;;;;;;11.40;7.53;;;;;;;;;;5073863;28;20060;-51
2023/02/15 16:57:16;;;;;;;13.23;6.00;;;;;;;;;;5073809;28;20021;-51
2023/02/15 16:59:44;;;;;;;11.48;5.88;;;;;;;;;;5074135;28;20427;-50
2023/02/15 17:02:16;;;;;;;13.32;5.88;;;;;;;;;;5073712;28;20025;-50
2023/02/15 17:04:42;;;;;;;11.48;5.97;;;;;;;;;;5072429;28;20568;-50
2023/02/15 17:07:15;;;;;;;14.18;6.80;;;;;;;;;;5073739;28;20024;-50
2023/02/15 17:09:40;;;;;;;;;;;;;;;;;;5074342;28;20037;-50
2023/02/15 17:12:09;;;;;;;8.93;4.50;;;;;;;;;;5073607;28;19914;-50
2023/02/15 17:14:39;;;;;;;14.77;6.90;;;;;;;;;;5073653;28;20055;-50
2023/02/15 17:17:07;;;;;;;13.52;7.43;;;;;;;;;;5072484;28;20043;-50
2023/02/15 17:19:48;;;;;;;17.92;6.85;;;;;;;;;;5073217;28;20585;-51
2023/02/15 17:22:19;;;;;;;10.32;6.15;;;;;;;;;;5073418;28;20032;-50
2023/02/15 17:24:45;;;;;;;10.65;5.78;;;;;;;;;;5073338;28;20099;-50
2023/02/15 17:27:19;;;;;;;12.38;6.35;;;;;;;;;;5073307;28;20029;-50
2023/02/15 17:29:58;;;;;;;8.82;5.15;;;;;;;;;;5073263;28;20116;-50
2023/02/15 17:32:28;;;;;;;13.77;7.25;;;;;;;;;;5071666;28;20484;-50
2023/02/15 17:35:01;;;;;;;13.50;7.60;;;;;;;;;;5073108;28;20028;-50
2023/02/15 17:37:27;;;;;;;13.20;6.95;;;;;;;;;;5073030;28;20483;-50
2023/02/15 17:39:53;;;;;;;11.63;5.57;;;;;;;;;;5073008;28;20031;-51
2023/02/15 17:42:19;;;;;;;11.07;5.97;;;;;;;;;;5072869;28;20474;-51
2023/02/15 17:44:44;;;;;;;9.32;5.60;;;;;;;;;;5071947;28;20040;-50
2023/02/15 17:47:15;;;;;;;9.40;5.57;;;;;;;;;;5072832;28;20524;-50
2023/02/15 17:49:40;;;;;;;10.85;5.68;;;;;;;;;;5072691;28;20073;-50
2023/02/15 17:52:09;;;;;;;11.18;5.28;;;;;;;;;;5072753;28;20024;-50
2023/02/15 17:57:19;;;;;;;13.25;6.05;;;;;;;;;;5072602;28;20426;-50